Time;durP1;ratioP1;P1;durP2;ratioP2;P2;SDS_P1;SDS_P2;PMS_P1;PMS_P2;Temp;Humidity;BMP_temperature;BMP_pressure;BME280_temperature;BME280_humidity;BME280_pressure;Samples;Min_cycle;Max_cycle;Signal;HPM_P1;HPM_P2
2021/09/21 00:01:22;;;;;;;3.47;1.55;;;13.10;78.70;;;;;;5054584;28;20040;-75
2021/09/21 00:03:47;;;;;;;2.50;1.50;;;13.10;78.80;;;;;;5052878;28;20021;-75
2021/09/21 00:06:13;;;;;;;3.67;1.30;;;13.10;78.90;;;;;;5053433;28;20013;-75
2021/09/21 00:08:39;;;;;;;2.88;1.60;;;13.10;78.80;;;;;;5054036;28;20021;-75
2021/09/21 00:11:05;;;;;;;4.05;1.55;;;13.10;78.80;;;;;;5054745;28;20086;-75
2021/09/21 00:13:32;;;;;;;2.20;1.20;;;13.10;78.70;;;;;;5053169;28;20475;-75
2021/09/21 00:15:58;;;;;;;3.00;1.40;;;13.10;78.80;;;;;;5052347;28;20025;-75
2021/09/21 00:18:24;;;;;;;3.17;1.67;;;13.10;79.00;;;;;;5054609;28;20028;-75
2021/09/21 00:20:50;;;;;;;3.75;1.33;;;13.00;78.90;;;;;;5053896;28;20021;-75
2021/09/21 00:23:15;;;;;;;2.30;1.45;;;13.10;79.10;;;;;;5054821;28;20445;-75
2021/09/21 00:25:41;;;;;;;2.63;1.38;;;13.00;79.20;;;;;;5053777;28;20061;-75
2021/09/21 00:28:07;;;;;;;2.25;1.35;;;13.00;79.20;;;;;;5054384;28;20044;-75
2021/09/21 00:30:33;;;;;;;2.88;1.30;;;13.10;79.20;;;;;;5053978;28;20041;-75
2021/09/21 00:33:03;;;;;;;2.78;1.70;;;13.00;79.10;;;;;;5052237;28;20031;-75
2021/09/21 00:35:31;;;;;;;3.38;1.67;;;13.00;79.10;;;;;;5060853;28;20453;-75
2021/09/21 00:37:57;;;;;;;3.13;1.60;;;13.00;79.10;;;;;;5073394;28;20244;-75
2021/09/21 00:40:23;;;;;;;4.53;1.80;;;13.00;79.10;;;;;;5073854;28;20044;-75
2021/09/21 00:42:49;;;;;;;2.13;1.38;;;12.90;79.20;;;;;;5073760;28;20048;-75
2021/09/21 00:45:23;;;;;;;3.85;1.88;;;12.90;79.20;;;;;;5074058;28;20020;-74
2021/09/21 00:47:49;;;;;;;4.68;1.50;;;12.90;79.20;;;;;;5072142;28;20016;-75
2021/09/21 00:50:15;;;;;;;3.13;1.92;;;12.90;79.20;;;;;;5073693;28;20017;-75
2021/09/21 00:52:40;;;;;;;2.58;1.40;;;12.90;79.30;;;;;;5073169;28;20031;-75
2021/09/21 00:55:07;;;;;;;3.30;1.92;;;12.90;79.20;;;;;;5073754;28;20108;-75
2021/09/21 00:57:35;;;;;;;3.72;1.70;;;12.90;79.10;;;;;;5072164;28;20020;-75
2021/09/21 01:00:01;;;;;;;3.28;2.03;;;12.80;79.00;;;;;;5073332;28;20018;-74
2021/09/21 01:02:27;;;;;;;3.33;1.45;;;12.90;79.20;;;;;;5072419;28;20475;-75
2021/09/21 01:04:52;;;;;;;3.90;1.55;;;12.90;79.30;;;;;;5073207;28;20072;-74
2021/09/21 01:07:18;;;;;;;2.25;1.65;;;12.80;79.30;;;;;;5073672;28;20024;-75
2021/09/21 01:09:44;;;;;;;4.03;2.08;;;12.90;79.30;;;;;;5072608;28;20355;-75
2021/09/21 01:12:10;;;;;;;3.92;1.70;;;12.90;79.30;;;;;;5073629;28;20017;-75
2021/09/21 01:14:36;;;;;;;3.83;1.90;;;12.80;79.30;;;;;;5073314;28;20095;-75
2021/09/21 01:17:02;;;;;;;4.13;2.00;;;12.80;79.40;;;;;;5072742;28;20544;-75
2021/09/21 01:19:27;;;;;;;4.15;2.30;;;12.80;79.50;;;;;;5073414;28;20017;-75
2021/09/21 01:21:53;;;;;;;3.17;1.98;;;12.80;79.60;;;;;;5071135;28;20047;-75
2021/09/21 01:24:20;;;;;;;4.15;1.92;;;12.80;79.60;;;;;;5073248;28;20103;-75
2021/09/21 01:26:46;;;;;;;3.47;2.00;;;12.70;79.60;;;;;;5071277;28;20020;-75
2021/09/21 01:29:12;;;;;;;3.20;1.80;;;12.70;79.60;;;;;;5072800;28;20016;-75
2021/09/21 01:31:40;;;;;;;5.85;2.38;;;12.70;79.60;;;;;;5073190;28;20166;-75
2021/09/21 01:34:06;;;;;;;4.57;2.42;;;12.70;79.70;;;;;;5072721;28;20013;-75
2021/09/21 01:36:32;;;;;;;3.38;2.22;;;12.70;79.80;;;;;;5072747;28;20021;-75
2021/09/21 01:38:59;;;;;;;4.13;2.38;;;12.70;79.90;;;;;;5072303;28;20016;-75
2021/09/21 01:41:25;;;;;;;6.20;1.88;;;12.70;79.80;;;;;;5072722;28;20020;-75
2021/09/21 01:43:51;;;;;;;4.07;2.15;;;12.70;79.90;;;;;;5072018;28;20457;-75
2021/09/21 01:46:21;;;;;;;3.85;2.22;;;12.70;79.90;;;;;;5072718;28;20074;-75
2021/09/21 01:48:48;;;;;;;3.85;1.90;;;12.70;80.00;;;;;;5072192;28;20052;-75
2021/09/21 01:51:16;;;;;;;4.00;2.15;;;12.60;80.00;;;;;;5072638;28;20017;-75
2021/09/21 01:53:52;;;;;;;4.70;1.83;;;12.60;80.10;;;;;;5070853;28;20082;-75
2021/09/21 01:59:02;;;;;;;5.25;2.08;;;12.60;80.10;;;;;;5071965;28;20420;-74
2021/09/21 02:01:28;;;;;;;4.35;2.38;;;12.60;80.10;;;;;;5071179;28;20016;-76
2021/09/21 02:03:56;;;;;;;3.85;1.83;;;12.50;80.10;;;;;;5071673;28;20063;-75
2021/09/21 02:06:32;;;;;;;3.03;2.10;;;12.50;80.10;;;;;;5072149;28;20540;-75
2021/09/21 02:08:58;;;;;;;3.78;1.92;;;12.50;80.20;;;;;;5070573;28;20099;-75
2021/09/21 02:11:23;;;;;;;3.70;2.00;;;12.50;80.30;;;;;;5072081;28;20041;-75
2021/09/21 02:13:49;;;;;;;3.42;1.83;;;12.50;80.30;;;;;;5071842;28;20448;-75
2021/09/21 02:16:15;;;;;;;5.80;2.13;;;12.50;80.30;;;;;;5071036;28;20483;-75
2021/09/21 02:18:40;;;;;;;3.95;2.20;;;12.50;80.30;;;;;;5072293;28;20021;-75
2021/09/21 02:21:06;;;;;;;2.83;1.67;;;12.40;80.30;;;;;;5069719;28;20165;-75
2021/09/21 02:23:32;;;;;;;3.55;2.08;;;12.40;80.30;;;;;;5072309;28;20032;-76
2021/09/21 02:25:57;;;;;;;2.85;1.85;;;12.40;80.30;;;;;;5071627;28;20016;-75
2021/09/21 02:28:23;;;;;;;4.15;2.30;;;12.40;80.40;;;;;;5070873;28;20012;-75
2021/09/21 02:30:49;;;;;;;3.58;2.00;;;12.40;81.00;;;;;;5071519;28;20081;-75
2021/09/21 02:33:14;;;;;;;2.80;1.67;;;12.40;80.50;;;;;;5072317;28;20032;-76
2021/09/21 02:35:41;;;;;;;6.68;2.00;;;12.40;80.60;;;;;;5072111;28;20119;-75
2021/09/21 02:38:07;;;;;;;3.88;1.92;;;12.40;80.60;;;;;;5071533;28;20021;-75
2021/09/21 02:40:32;;;;;;;2.78;1.75;;;12.40;80.70;;;;;;5070894;28;20025;-75
2021/09/21 02:42:58;;;;;;;4.93;1.92;;;12.40;80.90;;;;;;5071493;28;20365;-75
2021/09/21 02:45:24;;;;;;;4.80;2.08;;;12.40;81.00;;;;;;5072057;28;20092;-75
2021/09/21 02:47:50;;;;;;;3.60;1.88;;;12.40;81.00;;;;;;5069945;28;20111;-75
2021/09/21 02:50:15;;;;;;;3.25;1.60;;;12.40;81.00;;;;;;5070703;28;20070;-75
2021/09/21 02:52:41;;;;;;;4.47;2.00;;;12.40;81.10;;;;;;5070756;28;20437;-75
2021/09/21 02:55:07;;;;;;;4.80;2.20;;;12.40;81.30;;;;;;5071647;28;20021;-75
2021/09/21 02:57:34;;;;;;;3.15;1.80;;;12.30;81.40;;;;;;5071617;28;20025;-75
2021/09/21 03:00:01;;;;;;;3.35;1.85;;;12.30;81.60;;;;;;5070974;28;20036;-72
2021/09/21 03:02:30;;;;;;;2.92;1.67;;;12.30;81.70;;;;;;5071625;28;20082;-73
2021/09/21 03:04:59;;;;;;;3.30;1.85;;;12.30;81.90;;;;;;5071129;28;20108;-74
2021/09/21 03:07:33;;;;;;;4.15;2.00;;;12.30;82.00;;;;;;5071736;28;20099;-73
2021/09/21 03:10:15;;;;;;;2.60;1.58;;;12.20;82.00;;;;;;5069905;28;20024;-73
2021/09/21 03:17:59;;;;;;;3.70;1.83;;;12.20;82.30;;;;;;5070835;28;20039;-74
2021/09/21 03:20:25;;;;;;;3.17;1.73;;;12.20;82.40;;;;;;5070400;28;20017;-73
2021/09/21 03:22:50;;;;;;;5.65;2.63;;;12.20;82.40;;;;;;5070967;28;20031;-75
2021/09/21 03:25:18;;;;;;;6.70;2.22;;;12.10;82.50;;;;;;5070291;28;20380;-73
2021/09/21 03:27:43;;;;;;;4.40;1.92;;;12.10;82.70;;;;;;5071583;28;20017;-73
2021/09/21 03:30:10;;;;;;;2.85;1.55;;;12.10;82.80;;;;;;5069373;28;20444;-73
2021/09/21 03:32:36;;;;;;;5.57;2.00;;;12.10;82.80;;;;;;5072222;28;20041;-74
2021/09/21 03:35:03;;;;;;;3.45;1.70;;;12.10;82.90;;;;;;5074405;28;20052;-74
2021/09/21 03:37:28;;;;;;;4.55;1.88;;;12.10;82.90;;;;;;5074945;28;20368;-74
2021/09/21 03:39:54;;;;;;;3.80;1.88;;;12.10;82.90;;;;;;5074339;28;20021;-74
2021/09/21 03:42:20;;;;;;;4.15;2.25;;;12.10;83.10;;;;;;5074873;28;20394;-75
2021/09/21 03:44:46;;;;;;;3.47;1.77;;;12.00;83.10;;;;;;5073801;28;20056;-74
2021/09/21 03:47:11;;;;;;;3.95;1.80;;;12.10;83.30;;;;;;5074199;28;20353;-75
2021/09/21 03:49:37;;;;;;;3.55;1.90;;;12.00;83.40;;;;;;5075183;28;20017;-75
2021/09/21 03:52:03;;;;;;;6.50;2.05;;;12.00;83.40;;;;;;5073585;28;20420;-75
2021/09/21 03:54:29;;;;;;;3.20;1.55;;;12.00;83.40;;;;;;5074813;28;20025;-75
2021/09/21 03:56:54;;;;;;;2.85;1.70;;;12.00;83.50;;;;;;5073236;28;20365;-75
2021/09/21 03:59:20;;;;;;;4.47;1.65;;;12.00;83.60;;;;;;5073992;28;20469;-75
2021/09/21 04:01:46;;;;;;;4.38;2.20;;;12.00;83.40;;;;;;5073275;28;20047;-75
2021/09/21 04:04:11;;;;;;;3.67;1.90;;;12.00;83.40;;;;;;5073601;28;20503;-75
2021/09/21 04:06:37;;;;;;;3.38;1.70;;;12.00;83.40;;;;;;5074765;28;20028;-75
2021/09/21 04:09:03;;;;;;;3.00;1.80;;;12.00;83.50;;;;;;5073978;28;20017;-75
2021/09/21 04:11:29;;;;;;;3.50;1.98;;;12.00;83.60;;;;;;5074376;28;20024;-75
2021/09/21 04:13:54;;;;;;;3.35;1.80;;;12.00;83.70;;;;;;5073897;28;20097;-75
2021/09/21 04:16:20;;;;;;;2.83;1.65;;;12.00;83.70;;;;;;5074338;28;20033;-75
2021/09/21 04:18:46;;;;;;;4.05;1.88;;;12.00;83.70;;;;;;5072892;28;20047;-75
2021/09/21 04:21:12;;;;;;;4.75;2.50;;;12.00;83.70;;;;;;5072059;28;20522;-75
2021/09/21 04:23:40;;;;;;;5.30;2.20;;;12.00;83.80;;;;;;5074281;28;20050;-75
2021/09/21 04:26:09;;;;;;;3.47;2.22;;;11.90;84.00;;;;;;5072114;28;20039;-75
2021/09/21 04:28:36;;;;;;;4.28;2.28;;;12.00;84.10;;;;;;5072788;28;20489;-75
2021/09/21 04:31:09;;;;;;;4.40;2.00;;;12.00;84.20;;;;;;5101458;27;22651;-75
2021/09/21 04:33:36;;;;;;;3.17;1.90;;;12.00;84.10;;;;;;5037531;28;20084;-75
2021/09/21 04:36:07;;;;;;;3.08;1.80;;;12.10;84.10;;;;;;5052978;28;20041;-75
2021/09/21 04:38:33;;;;;;;4.45;1.75;;;12.10;84.00;;;;;;5052532;28;20028;-76
2021/09/21 04:40:59;;;;;;;3.83;1.85;;;12.10;83.90;;;;;;5053405;28;20032;-75
2021/09/21 04:43:25;;;;;;;4.55;2.20;;;12.20;83.90;;;;;;5054042;28;20436;-75
2021/09/21 04:45:50;;;;;;;3.72;2.03;;;12.20;83.90;;;;;;5052865;28;20122;-76
2021/09/21 04:48:16;;;;;;;4.80;2.25;;;12.20;83.90;;;;;;5067932;28;20094;-76
2021/09/21 04:50:41;;;;;;;4.80;2.17;;;12.20;83.80;;;;;;5053465;28;20063;-76
2021/09/21 04:53:07;;;;;;;3.25;1.70;;;12.20;83.70;;;;;;5051027;28;20032;-75
2021/09/21 04:55:33;;;;;;;3.75;1.92;;;12.20;83.80;;;;;;5052298;28;20094;-77
2021/09/21 04:57:58;;;;;;;4.15;2.38;;;12.20;83.80;;;;;;5052527;28;20486;-73
2021/09/21 05:00:24;;;;;;;5.57;2.35;;;12.20;84.10;;;;;;5049478;28;20603;-76
2021/09/21 05:02:50;;;;;;;5.15;2.08;;;12.30;84.20;;;;;;5043654;28;20033;-73
2021/09/21 05:05:17;;;;;;;4.30;2.08;;;12.30;84.10;;;;;;5051821;28;20094;-74
2021/09/21 05:07:42;;;;;;;3.45;2.08;;;12.30;84.10;;;;;;5052089;28;20074;-74
2021/09/21 05:10:09;;;;;;;3.97;2.28;;;12.40;84.20;;;;;;5050638;28;20539;-74
2021/09/21 05:12:35;;;;;;;4.15;2.25;;;12.40;84.20;;;;;;5052690;28;20036;-74
2021/09/21 05:15:00;;;;;;;3.50;1.98;;;12.40;84.10;;;;;;5050800;28;20357;-74
2021/09/21 05:17:26;;;;;;;5.28;2.28;;;12.50;84.10;;;;;;5052009;28;20043;-74
2021/09/21 05:19:52;;;;;;;3.95;2.10;;;12.50;84.10;;;;;;5053386;28;20028;-75
2021/09/21 05:22:18;;;;;;;6.60;2.45;;;12.50;84.10;;;;;;5067891;28;20040;-74
2021/09/21 05:24:44;;;;;;;6.65;2.70;;;12.50;84.10;;;;;;5053100;28;20033;-73
2021/09/21 05:27:09;;;;;;;5.25;2.20;;;12.60;84.00;;;;;;5052217;28;20025;-73
2021/09/21 05:29:35;;;;;;;5.88;2.33;;;12.60;83.90;;;;;;5053049;28;20029;-75
2021/09/21 05:32:01;;;;;;;5.32;2.15;;;12.70;83.90;;;;;;5052659;28;20025;-73
2021/09/21 05:34:26;;;;;;;4.78;2.47;;;12.70;83.80;;;;;;5053037;28;20049;-73
2021/09/21 05:36:52;;;;;;;6.13;2.58;;;12.80;84.00;;;;;;5052665;28;20376;-74
2021/09/21 05:39:18;;;;;;;4.22;2.35;;;12.80;84.00;;;;;;5052249;28;20184;-73
2021/09/21 05:41:43;;;;;;;5.70;2.80;;;12.80;84.10;;;;;;5052664;28;20021;-74
2021/09/21 05:44:09;;;;;;;4.82;2.50;;;12.80;84.00;;;;;;5051895;28;20594;-73
2021/09/21 05:46:35;;;;;;;12.13;2.70;;;12.80;84.10;;;;;;5052752;28;20025;-74
2021/09/21 05:49:01;;;;;;;5.68;2.63;;;12.80;84.20;;;;;;5050779;28;20032;-74
2021/09/21 05:51:28;;;;;;;4.47;2.35;;;12.90;84.30;;;;;;5052532;28;20462;-74
2021/09/21 05:53:54;;;;;;;5.85;2.63;;;12.90;84.20;;;;;;5052634;28;20024;-75
2021/09/21 05:56:20;;;;;;;4.75;2.75;;;12.90;84.30;;;;;;5051016;28;20044;-75
2021/09/21 05:58:46;;;;;;;4.82;2.58;;;12.90;84.40;;;;;;5067745;28;20424;-75
2021/09/21 06:01:12;;;;;;;4.70;2.47;;;13.00;84.40;;;;;;5050693;28;20017;-75
2021/09/21 06:03:38;;;;;;;4.50;2.70;;;13.00;84.30;;;;;;5052498;28;20083;-75
2021/09/21 06:06:03;;;;;;;5.57;2.55;;;13.00;84.30;;;;;;5050444;28;20029;-75
2021/09/21 06:08:29;;;;;;;6.28;2.65;;;13.10;84.40;;;;;;5067383;28;20094;-75
2021/09/21 06:10:55;;;;;;;5.30;2.35;;;13.10;84.40;;;;;;5052723;28;20104;-75
2021/09/21 06:13:21;;;;;;;5.85;2.75;;;13.20;84.40;;;;;;5051594;28;20025;-75
2021/09/21 06:15:49;;;;;;;4.72;2.63;;;13.10;84.40;;;;;;5052380;28;20090;-75
2021/09/21 06:18:15;;;;;;;6.55;2.67;;;13.20;84.40;;;;;;5051334;28;20025;-75
2021/09/21 06:20:41;;;;;;;6.22;2.72;;;13.20;84.30;;;;;;5052282;28;20028;-75
2021/09/21 06:23:07;;;;;;;6.43;2.90;;;13.30;84.20;;;;;;5051716;28;20025;-72
2021/09/21 06:25:33;;;;;;;6.25;2.78;;;13.30;84.20;;;;;;5051794;28;20052;-74
2021/09/21 06:28:01;;;;;;;5.40;2.85;;;13.30;84.20;;;;;;5052274;28;20056;-74
2021/09/21 06:30:27;;;;;;;9.32;3.00;;;13.40;84.20;;;;;;5051906;28;20018;-74
2021/09/21 06:32:53;;;;;;;5.57;2.55;;;13.40;84.10;;;;;;5050170;28;20033;-74
2021/09/21 06:35:19;;;;;;;4.25;2.42;;;13.50;84.10;;;;;;5051620;28;20112;-73
2021/09/21 06:37:45;;;;;;;5.68;3.10;;;13.50;84.10;;;;;;5051704;28;20052;-73
2021/09/21 06:40:11;;;;;;;7.70;3.08;;;13.50;84.00;;;;;;5051237;28;20017;-74
2021/09/21 06:42:41;;;;;;;3.88;2.42;;;13.60;83.90;;;;;;5051675;28;20032;-74
2021/09/21 06:45:08;;;;;;;5.47;2.85;;;13.60;83.70;;;;;;5051187;28;20462;-74
2021/09/21 06:47:34;;;;;;;6.70;2.80;;;13.70;83.80;;;;;;5051463;28;20342;-74
2021/09/21 06:49:59;;;;;;;7.25;3.05;;;13.70;83.80;;;;;;5050374;28;20104;-74
2021/09/21 06:52:25;;;;;;;8.18;2.80;;;13.80;83.80;;;;;;5066283;28;20021;-74
2021/09/21 06:54:51;;;;;;;7.38;3.10;;;13.80;83.70;;;;;;5051853;28;20072;-74
2021/09/21 06:57:17;;;;;;;9.40;3.70;;;13.80;83.60;;;;;;5051157;28;20061;-74
2021/09/21 06:59:43;;;;;;;4.78;2.58;;;13.90;83.60;;;;;;5051701;28;20025;-74
2021/09/21 07:02:09;;;;;;;8.65;3.22;;;13.90;83.70;;;;;;5051091;28;20025;-74
2021/09/21 07:04:35;;;;;;;6.30;2.80;;;14.00;83.80;;;;;;5051624;28;20031;-74
2021/09/21 07:07:00;;;;;;;7.32;2.70;;;14.00;83.90;;;;;;5050343;28;20028;-74
2021/09/21 07:09:26;;;;;;;6.88;2.83;;;14.00;84.00;;;;;;5070161;28;20086;-74
2021/09/21 07:11:51;;;;;;;6.47;3.17;;;14.00;84.20;;;;;;5055872;28;20424;-74
2021/09/21 07:14:18;;;;;;;8.95;4.20;;;14.00;84.30;;;;;;5055101;28;20109;-74
2021/09/21 07:16:44;;;;;;;6.40;3.40;;;14.00;84.30;;;;;;5055567;28;20078;-75
2021/09/21 07:19:10;;;;;;;8.75;3.40;;;14.10;84.40;;;;;;5053720;28;20496;-75
2021/09/21 07:21:36;;;;;;;7.00;3.40;;;14.10;84.30;;;;;;5055664;28;20025;-75
2021/09/21 07:24:01;;;;;;;6.75;3.20;;;14.20;84.30;;;;;;5055458;28;20050;-75
2021/09/21 07:26:27;;;;;;;7.15;3.20;;;14.30;84.30;;;;;;5054807;28;20349;-75
2021/09/21 07:28:53;;;;;;;6.65;3.25;;;14.40;84.20;;;;;;5055624;28;20029;-75
2021/09/21 07:31:19;;;;;;;5.78;3.53;;;14.40;84.10;;;;;;5054563;28;20020;-74
2021/09/21 07:33:46;;;;;;;7.22;3.20;;;14.50;84.00;;;;;;5055271;28;20081;-74
2021/09/21 07:36:12;;;;;;;7.88;3.13;;;14.50;84.00;;;;;;5054258;28;20431;-73
2021/09/21 07:38:39;;;;;;;6.32;3.40;;;14.50;84.70;;;;;;5055479;28;20017;-74
2021/09/21 07:41:04;;;;;;;6.57;2.67;;;14.50;84.40;;;;;;5053886;28;20049;-74
2021/09/21 07:43:30;;;;;;;5.55;3.08;;;14.50;84.60;;;;;;5053066;28;20542;-74
2021/09/21 07:45:56;;;;;;;6.55;3.45;;;14.50;84.80;;;;;;5055340;28;20021;-74
2021/09/21 07:48:22;;;;;;;5.80;2.88;;;14.40;85.00;;;;;;5054426;28;20096;-74
2021/09/21 07:50:48;;;;;;;8.20;4.03;;;14.40;85.10;;;;;;5053642;28;20024;-74
2021/09/21 07:53:14;;;;;;;7.35;3.58;;;14.40;85.10;;;;;;5054288;28;20029;-75
2021/09/21 07:55:40;;;;;;;6.45;3.35;;;14.40;85.20;;;;;;5055106;28;20025;-76
2021/09/21 07:58:06;;;;;;;6.60;3.40;;;14.40;85.20;;;;;;5054949;28;20018;-76
2021/09/21 08:00:31;;;;;;;7.47;3.28;;;14.50;85.30;;;;;;5054113;28;20025;-76
2021/09/21 08:02:57;;;;;;;5.97;3.05;;;14.50;85.30;;;;;;5054776;28;20025;-76
2021/09/21 08:05:23;;;;;;;5.45;3.38;;;14.50;85.10;;;;;;5054118;28;20028;-74
2021/09/21 08:07:49;;;;;;;6.40;3.60;;;14.50;85.00;;;;;;5054416;28;20535;-75
2021/09/21 08:10:16;;;;;;;5.53;2.60;;;14.50;85.00;;;;;;5054129;28;20123;-74
2021/09/21 08:12:42;;;;;;;5.22;2.63;;;14.50;84.80;;;;;;5054721;28;20405;-75
2021/09/21 08:15:09;;;;;;;5.70;3.08;;;14.60;84.60;;;;;;5053257;28;20020;-74
2021/09/21 08:17:36;;;;;;;5.95;2.80;;;14.60;84.40;;;;;;5054422;28;20025;-74
2021/09/21 08:20:02;;;;;;;4.95;2.88;;;14.60;84.20;;;;;;5053361;28;20017;-73
2021/09/21 08:22:28;;;;;;;4.85;2.50;;;14.70;84.10;;;;;;5053842;28;20104;-74
2021/09/21 08:24:55;;;;;;;10.00;2.72;;;14.70;84.40;;;;;;5054643;28;20111;-74
2021/09/21 08:27:22;;;;;;;4.00;2.17;;;14.80;84.00;;;;;;5053338;28;20486;-74
2021/09/21 08:29:47;;;;;;;5.15;2.25;;;14.90;83.90;;;;;;5053992;28;20466;-74
2021/09/21 08:32:13;;;;;;;4.35;2.33;;;14.90;83.70;;;;;;5053274;28;20024;-74
2021/09/21 08:34:39;;;;;;;3.03;1.85;;;15.00;83.60;;;;;;5054077;28;20462;-74
2021/09/21 08:37:05;;;;;;;5.97;2.35;;;15.10;83.60;;;;;;5053914;28;20029;-74
2021/09/21 08:39:31;;;;;;;5.55;2.40;;;15.10;83.30;;;;;;5053442;28;20437;-74
2021/09/21 08:41:56;;;;;;;3.70;1.95;;;15.10;83.10;;;;;;5052661;28;20028;-76
2021/09/21 08:44:22;;;;;;;4.22;2.00;;;15.20;83.10;;;;;;5053420;28;20029;-73
2021/09/21 08:46:48;;;;;;;4.93;1.80;;;15.20;83.00;;;;;;5052565;28;20025;-74
2021/09/21 08:49:15;;;;;;;3.97;1.83;;;15.20;82.80;;;;;;5053058;28;20021;-74
2021/09/21 08:51:42;;;;;;;3.55;1.88;;;15.30;82.70;;;;;;5053796;28;20092;-75
2021/09/21 08:54:07;;;;;;;2.63;1.55;;;15.30;82.40;;;;;;5051885;28;20025;-75
2021/09/21 08:56:33;;;;;;;2.95;1.80;;;15.40;82.20;;;;;;5052742;28;20028;-74
2021/09/21 08:59:10;;;;;;;4.07;2.00;;;15.40;81.80;;;;;;5053954;28;20078;-74
2021/09/21 09:01:49;;;;;;;3.28;1.92;;;15.50;81.40;;;;;;5053143;28;20423;-75
2021/09/21 09:04:17;;;;;;;4.00;1.70;;;15.50;80.90;;;;;;5053330;28;20033;-74
2021/09/21 09:06:56;;;;;;;3.90;1.52;;;15.60;80.80;;;;;;5053542;28;20025;-74
2021/09/21 09:09:25;;;;;;;2.85;1.35;;;15.70;80.30;;;;;;5052903;28;20070;-75
2021/09/21 09:11:54;;;;;;;3.10;1.70;;;15.80;80.00;;;;;;5052161;28;20058;-75
2021/09/21 09:14:21;;;;;;;3.95;1.77;;;15.80;79.40;;;;;;5051396;28;20174;-74
2021/09/21 09:16:52;;;;;;;3.60;1.60;;;15.80;79.00;;;;;;5052103;28;20032;-74
2021/09/21 09:19:18;;;;;;;;;;;15.90;78.70;;;;;;5053249;28;20074;-72
2021/09/21 09:21:46;;;;;;;3.50;1.33;;;15.80;78.70;;;;;;5052200;28;20422;-76
2021/09/21 09:24:13;;;;;;;3.08;1.75;;;15.90;78.20;;;;;;5053535;28;20031;-75
2021/09/21 09:26:42;;;;;;;2.83;1.40;;;15.90;77.90;;;;;;5052749;28;20021;-74
2021/09/21 09:29:15;;;;;;;2.17;1.40;;;15.90;77.50;;;;;;5068317;28;20029;-74
2021/09/21 09:31:43;;;;;;;2.85;1.40;;;16.00;77.20;;;;;;5052932;28;20508;-74
2021/09/21 09:34:08;;;;;;;2.58;1.23;;;16.00;77.10;;;;;;5051185;28;20141;-74
2021/09/21 09:36:45;;;;;;;4.10;1.50;;;16.00;76.80;;;;;;5052296;28;20348;-74
2021/09/21 09:39:13;;;;;;;4.30;1.45;;;16.10;76.50;;;;;;5052855;28;20045;-74
2021/09/21 09:41:41;;;;;;;3.28;1.60;;;16.10;76.20;;;;;;5052247;28;20017;-74
2021/09/21 09:44:09;;;;;;;3.40;1.48;;;16.10;75.80;;;;;;5052714;28;20038;-74
2021/09/21 09:46:52;;;;;;;7.18;1.55;;;16.20;75.60;;;;;;5052098;28;20074;-74
2021/09/21 09:49:33;;;;;;;2.85;1.58;;;16.20;75.20;;;;;;5067529;28;20103;-74
2021/09/21 09:52:07;;;;;;;2.78;1.48;;;16.30;74.80;;;;;;5052555;28;20024;-74
2021/09/21 09:54:34;;;;;;;3.58;1.52;;;16.30;74.30;;;;;;5050655;28;20116;-74
2021/09/21 09:57:00;;;;;;;3.90;1.23;;;16.30;73.90;;;;;;5051300;28;20025;-74
2021/09/21 09:59:28;;;;;;;1.85;1.10;;;16.30;73.60;;;;;;5051962;28;20028;-74
2021/09/21 10:01:53;;;;;;;2.75;1.27;;;16.40;73.20;;;;;;5052381;28;20025;-74
2021/09/21 10:04:19;;;;;;;1.50;0.98;;;16.40;72.60;;;;;;5051566;28;20074;-74
2021/09/21 10:06:46;;;;;;;1.52;1.08;;;16.40;72.60;;;;;;5052216;28;20381;-74
2021/09/21 10:09:12;;;;;;;2.10;1.15;;;16.50;72.00;;;;;;5052358;28;20462;-74
2021/09/21 10:11:39;;;;;;;2.42;1.30;;;16.50;71.80;;;;;;5051695;28;20086;-74
2021/09/21 10:14:06;;;;;;;2.15;1.38;;;16.50;71.20;;;;;;5051886;28;20025;-74
2021/09/21 10:16:32;;;;;;;2.30;1.23;;;16.60;70.90;;;;;;5051523;28;20045;-74
2021/09/21 10:19:03;;;;;;;1.77;1.10;;;16.60;70.60;;;;;;5052047;28;20025;-74
2021/09/21 10:21:37;;;;;;;2.33;1.15;;;16.70;70.60;;;;;;5051461;28;20028;-74
2021/09/21 10:24:06;;;;;;;2.55;1.20;;;16.70;70.20;;;;;;5052114;28;20100;-76
2021/09/21 10:26:43;;;;;;;1.17;1.08;;;16.70;70.10;;;;;;5051464;28;20017;-76
2021/09/21 10:29:09;;;;;;;2.10;1.40;;;16.70;69.90;;;;;;5052053;28;20021;-74
2021/09/21 10:31:38;;;;;;;2.03;0.85;;;16.70;69.70;;;;;;5051288;28;20039;-74
2021/09/21 10:34:17;;;;;;;2.03;1.13;;;16.70;69.50;;;;;;5051504;28;20049;-74
2021/09/21 10:36:51;;;;;;;3.13;1.05;;;16.80;69.00;;;;;;5051256;28;20033;-74
2021/09/21 10:39:19;;;;;;;2.75;1.20;;;16.80;69.00;;;;;;5050526;28;20082;-74
2021/09/21 10:42:06;;;;;;;2.13;1.20;;;16.80;68.60;;;;;;5051399;28;20113;-74
2021/09/21 10:44:32;;;;;;;2.33;1.10;;;16.90;68.20;;;;;;5051307;28;20039;-74
2021/09/21 10:47:06;;;;;;;1.67;1.13;;;16.90;68.20;;;;;;5051426;28;20366;-74
2021/09/21 10:49:35;;;;;;;1.80;1.20;;;16.90;68.10;;;;;;5051312;28;20020;-73
2021/09/21 10:52:13;;;;;;;4.93;1.42;;;16.90;68.10;;;;;;5051582;28;20085;-74
2021/09/21 10:54:41;;;;;;;2.90;1.48;;;16.90;68.00;;;;;;5049749;28;20028;-74
2021/09/21 10:57:17;;;;;;;3.10;1.60;;;17.00;68.10;;;;;;5051789;28;20024;-74
2021/09/21 10:59:57;;;;;;;2.75;1.35;;;17.00;67.80;;;;;;5051185;28;20025;-74
2021/09/21 11:02:25;;;;;;;4.35;1.70;;;17.00;67.50;;;;;;5050760;28;20021;-74
2021/09/21 11:04:51;;;;;;;2.95;1.23;;;17.00;67.50;;;;;;5051365;28;20029;-75
2021/09/21 11:07:17;;;;;;;3.22;1.30;;;17.10;67.30;;;;;;5051542;28;20025;-74
2021/09/21 11:09:50;;;;;;;3.88;1.33;;;17.20;67.00;;;;;;5051061;28;20033;-74
2021/09/21 11:12:15;;;;;;;2.70;1.13;;;17.20;66.60;;;;;;5050372;28;20024;-74
2021/09/21 11:14:43;;;;;;;3.25;1.45;;;17.30;66.70;;;;;;5050612;28;20033;-74
2021/09/21 11:17:10;;;;;;;2.45;1.35;;;17.40;66.50;;;;;;5051544;28;20104;-74
2021/09/21 11:19:38;;;;;;;6.90;2.00;;;17.40;66.00;;;;;;5050988;28;20025;-74
2021/09/21 11:22:06;;;;;;;3.55;1.60;;;17.40;65.70;;;;;;5051518;28;20040;-75
2021/09/21 11:24:34;;;;;;;3.38;1.40;;;17.50;65.40;;;;;;5050831;28;20230;-74
2021/09/21 11:27:08;;;;;;;2.88;1.52;;;17.60;65.40;;;;;;5051351;28;20469;-74
2021/09/21 11:29:37;;;;;;;2.72;1.60;;;17.60;64.70;;;;;;5050688;28;20025;-74
2021/09/21 11:32:21;;;;;;;3.08;1.08;;;17.70;64.80;;;;;;5050066;28;20025;-74
2021/09/21 11:35:00;;;;;;;2.42;1.40;;;17.80;64.70;;;;;;5049099;28;20041;-74
2021/09/21 11:37:27;;;;;;;2.95;1.40;;;17.90;64.40;;;;;;5050771;28;20029;-74
2021/09/21 11:39:53;;;;;;;3.22;1.48;;;17.90;64.30;;;;;;5051347;28;20064;-75
2021/09/21 11:42:29;;;;;;;2.58;1.23;;;18.00;64.20;;;;;;5051562;28;20108;-75
2021/09/21 11:45:10;;;;;;;2.90;1.42;;;18.00;63.70;;;;;;5051514;28;20052;-74
2021/09/21 11:47:41;;;;;;;2.78;1.40;;;18.10;63.20;;;;;;5050478;28;20017;-74
2021/09/21 11:50:12;;;;;;;2.00;1.20;;;18.10;63.30;;;;;;5051336;28;20028;-74
2021/09/21 11:52:40;;;;;;;;;;;18.20;63.10;;;;;;5051115;28;20029;-74
2021/09/21 11:55:13;;;;;;;2.70;1.23;;;18.30;63.20;;;;;;5054144;28;19921;-74
2021/09/21 11:57:40;;;;;;;4.60;2.08;;;18.40;63.00;;;;;;5053008;28;20073;-74
2021/09/21 12:00:17;;;;;;;2.75;1.23;;;18.40;62.70;;;;;;5070144;28;20373;-74
2021/09/21 12:02:43;;;;;;;2.70;1.55;;;18.50;62.80;;;;;;5053674;28;20032;-74
2021/09/21 12:05:12;;;;;;;2.72;1.50;;;18.60;62.80;;;;;;5054724;28;20112;-74
2021/09/21 12:07:39;;;;;;;2.83;1.40;;;18.60;62.30;;;;;;5053777;28;20100;-74
2021/09/21 12:10:06;;;;;;;2.70;1.20;;;18.60;62.10;;;;;;5054881;28;20477;-74
2021/09/21 12:12:32;;;;;;;2.67;1.38;;;18.70;62.10;;;;;;5053980;28;20021;-74
2021/09/21 12:14:59;;;;;;;3.72;1.67;;;18.70;62.10;;;;;;5054524;28;20359;-74
2021/09/21 12:17:26;;;;;;;3.08;1.92;;;18.80;61.70;;;;;;5054212;28;20115;-74
2021/09/21 12:20:02;;;;;;;1.63;1.33;;;18.90;61.70;;;;;;5054369;28;20021;-74
2021/09/21 12:22:28;;;;;;;3.10;1.52;;;18.90;61.40;;;;;;5052381;28;20100;-74
2021/09/21 12:25:05;;;;;;;2.03;1.50;;;18.90;61.50;;;;;;5069819;28;20167;-74
2021/09/21 12:27:33;;;;;;;3.38;1.50;;;18.90;61.10;;;;;;5053695;28;20029;-74
2021/09/21 12:29:59;;;;;;;3.38;1.92;;;18.90;61.10;;;;;;5069971;28;20033;-74
2021/09/21 12:32:25;;;;;;;4.00;1.60;;;18.90;61.00;;;;;;5054103;28;20493;-75
2021/09/21 12:35:00;;;;;;;2.65;1.60;;;18.90;60.70;;;;;;5053605;28;20049;-75
2021/09/21 12:37:26;;;;;;;2.83;1.75;;;19.00;60.40;;;;;;5052969;28;20032;-76
2021/09/21 12:39:58;;;;;;;4.53;1.83;;;19.00;60.40;;;;;;5053595;28;20464;-75
2021/09/21 12:42:24;;;;;;;4.10;1.80;;;18.90;60.00;;;;;;5054009;28;20103;-75
2021/09/21 12:44:50;;;;;;;3.55;1.67;;;18.90;60.20;;;;;;5053389;28;20525;-74
2021/09/21 12:47:16;;;;;;;3.42;1.17;;;18.90;60.20;;;;;;5053873;28;20029;-74
2021/09/21 12:49:42;;;;;;;1.77;1.25;;;19.00;60.30;;;;;;5053041;28;20031;-74
2021/09/21 12:52:08;;;;;;;2.28;1.52;;;19.00;60.20;;;;;;5069213;28;20361;-74
2021/09/21 12:54:34;;;;;;;3.05;1.52;;;19.00;60.30;;;;;;5068258;28;20043;-74
2021/09/21 12:57:00;;;;;;;2.88;1.52;;;19.10;60.40;;;;;;5054073;28;20096;-74